createdAt,value
2022-12-03T00:00:49.314Z,104253.56
2022-12-03T00:03:36.289Z,104295.97
2022-12-03T00:06:23.234Z,104297.91
2022-12-03T00:09:09.984Z,104297.97
2022-12-03T00:11:56.734Z,104292.78
2022-12-03T00:14:44.967Z,104290.19
2022-12-03T00:17:31.946Z,104277.91
2022-12-03T00:20:18.841Z,104289.22
2022-12-03T00:23:05.589Z,104279.78
2022-12-03T00:25:52.354Z,104275.50
2022-12-03T00:28:39.097Z,104279.91
2022-12-03T00:31:26.257Z,104244.97
2022-12-03T00:34:13.070Z,104271.19
2022-12-03T00:37:00.766Z,104272.94
2022-12-03T00:39:47.531Z,104273.03
2022-12-03T00:42:34.273Z,104277.41
2022-12-03T00:45:21.057Z,104268.84
2022-12-03T00:48:07.800Z,104259.22
2022-12-03T00:50:54.636Z,104266.22
2022-12-03T00:53:41.407Z,104265.38
2022-12-03T00:56:28.473Z,104265.44
2022-12-03T00:59:15.206Z,104215.38
2022-12-03T01:02:02.094Z,104262.00
2022-12-03T01:04:49.067Z,104260.25
2022-12-03T01:07:35.979Z,104248.75
2022-12-03T01:10:24.466Z,104258.28
2022-12-03T01:13:11.231Z,104267.31
2022-12-03T01:15:57.998Z,104240.50
2022-12-03T01:18:44.794Z,104208.53
2022-12-03T01:21:31.638Z,104244.34
2022-12-03T01:24:18.707Z,104200.25
2022-12-03T01:27:05.486Z,104256.84
2022-12-03T01:29:52.234Z,104256.97
2022-12-03T01:32:41.597Z,104250.75
2022-12-03T01:35:28.548Z,104253.91
2022-12-03T01:38:15.270Z,104248.91
2022-12-03T01:41:04.853Z,104253.50
2022-12-03T01:43:53.977Z,104197.31
2022-12-03T01:46:48.004Z,104238.63
2022-12-03T01:49:42.248Z,104241.38
2022-12-03T01:52:33.187Z,104176.22
2022-12-03T01:55:22.763Z,104174.34
2022-12-03T01:58:15.581Z,104238.69
2022-12-03T02:01:02.328Z,104234.28
2022-12-03T02:03:49.227Z,104212.84
2022-12-03T02:06:38.937Z,104228.22
2022-12-03T02:09:25.792Z,104233.53
2022-12-03T02:12:12.570Z,104216.91
2022-12-03T02:14:59.509Z,104221.16
2022-12-03T02:17:47.967Z,104147.16
2022-12-03T02:20:35.049Z,104218.75
2022-12-03T02:23:36.661Z,104203.63
2022-12-03T02:26:23.937Z,104221.31
2022-12-03T02:29:12.148Z,104204.72
2022-12-03T02:31:59.203Z,104208.16
2022-12-03T02:35:01.752Z,104204.66
2022-12-03T02:37:55.120Z,104206.44
2022-12-03T02:40:46.293Z,104185.16
2022-12-03T02:43:35.381Z,104200.34
2022-12-03T02:46:24.891Z,104198.56
2022-12-03T02:49:11.818Z,104190.72
2022-12-03T02:51:58.630Z,104193.34
2022-12-03T02:54:45.734Z,104184.56
2022-12-03T02:57:32.669Z,104161.19
2022-12-03T03:00:19.499Z,104189.00
2022-12-03T03:03:07.369Z,104105.75
2022-12-03T03:05:56.396Z,104111.25
2022-12-03T03:08:45.587Z,104163.16
2022-12-03T03:11:32.528Z,104178.44
2022-12-03T03:14:22.383Z,104170.59
2022-12-03T03:17:09.142Z,104171.47
2022-12-03T03:19:56.081Z,104167.06
2022-12-03T03:22:52.222Z,104168.84
2022-12-03T03:25:40.091Z,104165.34
2022-12-03T03:28:27.706Z,104068.78
2022-12-03T03:31:14.942Z,104158.88
2022-12-03T03:34:03.756Z,104156.53
2022-12-03T03:36:51.333Z,104156.47
2022-12-03T03:39:38.129Z,104155.56
2022-12-03T03:42:24.994Z,104158.09
2022-12-03T03:45:11.898Z,104163.34
2022-12-03T03:47:59.150Z,104152.00
2022-12-03T03:50:48.813Z,104149.22
2022-12-03T03:53:36.549Z,104139.38
2022-12-03T03:56:23.490Z,104143.72
2022-12-03T03:59:10.412Z,104151.03
2022-12-03T04:01:57.502Z,104131.47
2022-12-03T04:04:49.124Z,104142.19
2022-12-03T04:07:36.654Z,104087.38
2022-12-03T04:10:23.747Z,104137.63
2022-12-03T04:13:16.440Z,104142.00
2022-12-03T04:16:03.238Z,104150.00
2022-12-03T04:19:05.151Z,104044.59
2022-12-03T04:21:50.519Z,104138.56
2022-12-03T04:24:37.273Z,104133.97
2022-12-03T04:27:22.588Z,104100.19
2022-12-03T04:30:09.416Z,104133.19
2022-12-03T04:32:54.919Z,104129.69
2022-12-03T04:35:40.070Z,104117.28
2022-12-03T04:38:33.886Z,104127.06
2022-12-03T04:41:20.658Z,104124.38
2022-12-03T04:44:05.954Z,104111.09
2022-12-03T04:46:52.739Z,104119.97
2022-12-03T04:49:39.494Z,104118.19
2022-12-03T04:52:26.770Z,104113.78
2022-12-03T04:55:13.507Z,104106.59
2022-12-03T04:58:00.248Z,104101.44
2022-12-03T05:00:47.217Z,104095.88
2022-12-03T05:03:33.995Z,104088.28
2022-12-03T05:06:20.794Z,104085.34
2022-12-03T05:09:07.550Z,104080.88
2022-12-03T05:11:54.519Z,104098.63
2022-12-03T05:14:41.729Z,104087.03
2022-12-03T05:17:28.581Z,104081.00
2022-12-03T05:20:13.919Z,104055.97
2022-12-03T05:23:00.662Z,104086.44
2022-12-03T05:25:47.438Z,104082.09
2022-12-03T05:28:34.238Z,104085.53
2022-12-03T05:31:21.087Z,104051.69
2022-12-03T05:34:07.972Z,104075.78
2022-12-03T05:36:54.772Z,104079.56
2022-12-03T05:39:41.623Z,104019.72
2022-12-03T05:42:28.582Z,103994.69
2022-12-03T05:45:16.085Z,104071.63
2022-12-03T05:48:02.817Z,104067.34
2022-12-03T05:50:52.625Z,104075.38
2022-12-03T05:53:39.901Z,104021.09
2022-12-03T05:56:26.922Z,104072.81
2022-12-03T05:59:13.764Z,104067.66
2022-12-03T06:02:00.596Z,104063.31
2022-12-03T06:04:47.442Z,104056.06
2022-12-03T06:07:34.290Z,104066.84
2022-12-03T06:10:21.178Z,104050.88
2022-12-03T06:13:08.001Z,104047.94
2022-12-03T06:15:54.804Z,104060.75
2022-12-03T06:18:41.585Z,104053.63
2022-12-03T06:21:28.324Z,104054.69
2022-12-03T06:24:15.094Z,104046.56
2022-12-03T06:27:01.886Z,104063.44
2022-12-03T06:29:48.649Z,104054.75
2022-12-03T06:32:35.505Z,104019.94
2022-12-03T06:35:22.268Z,104047.91
2022-12-03T06:38:09.061Z,104050.53
2022-12-03T06:40:55.861Z,104047.91
2022-12-03T06:43:42.698Z,104046.19
2022-12-03T06:46:29.558Z,104046.19
2022-12-03T06:49:16.372Z,104049.69
2022-12-03T06:52:03.141Z,103957.78
2022-12-03T06:54:49.889Z,104043.59
2022-12-03T06:57:36.622Z,104037.38
2022-12-03T07:00:44.556Z,104048.16
2022-12-03T07:03:31.288Z,104053.47
2022-12-03T07:06:18.046Z,103969.84
2022-12-03T07:09:04.887Z,104036.81
2022-12-03T07:11:51.782Z,104031.69
2022-12-03T07:14:38.590Z,104042.25
2022-12-03T07:17:25.373Z,104028.19
2022-12-03T07:20:12.113Z,104034.44
2022-12-03T07:22:58.965Z,104032.69
2022-12-03T07:25:45.700Z,104025.75
2022-12-03T07:28:32.442Z,104027.50
2022-12-03T07:31:19.249Z,104000.78
2022-12-03T07:34:06.757Z,104017.94
2022-12-03T07:36:54.193Z,104020.63
2022-12-03T07:39:40.965Z,104019.72
2022-12-03T07:42:27.764Z,104027.56
2022-12-03T07:45:14.535Z,103894.47
2022-12-03T07:48:01.282Z,104012.47
2022-12-03T07:50:48.058Z,104025.81
2022-12-03T07:53:35.474Z,104014.41
2022-12-03T07:56:23.924Z,104028.47
2022-12-03T07:59:10.718Z,104003.06
2022-12-03T08:01:57.569Z,103950.34
2022-12-03T10:30:22.453Z,103900.09
2022-12-03T10:32:51.232Z,103887.56
2022-12-03T10:35:41.191Z,103919.00
2022-12-03T10:38:36.850Z,103928.94
2022-12-03T10:41:40.833Z,103893.28
2022-12-03T10:44:40.633Z,103850.75
2022-12-03T10:47:31.084Z,103918.75
2022-12-03T10:50:25.871Z,103924.06
2022-12-03T10:53:12.849Z,103924.97
2022-12-03T10:56:02.666Z,103926.00
2022-12-03T10:58:51.697Z,103822.03
2022-12-03T11:01:42.259Z,103909.53
2022-12-03T11:04:54.385Z,103913.09
2022-12-03T11:07:42.776Z,103909.69
2022-12-03T11:10:35.752Z,103901.88
2022-12-03T11:13:52.090Z,103899.34
2022-12-03T11:17:00.621Z,103892.41
2022-12-03T11:19:57.043Z,103885.44
2022-12-03T11:22:58.030Z,103894.31
2022-12-03T11:25:44.722Z,103884.69
2022-12-03T11:28:34.521Z,103885.66
2022-12-03T11:31:28.450Z,103875.19
2022-12-03T11:34:37.976Z,103880.50
2022-12-03T11:37:30.649Z,103867.38
2022-12-03T11:40:23.162Z,103878.88
2022-12-03T11:43:09.961Z,103875.44
2022-12-03T11:46:04.065Z,103869.38
2022-12-03T11:48:51.334Z,103759.88
2022-12-03T11:51:41.491Z,103824.22
2022-12-03T11:54:36.855Z,103865.19
2022-12-03T11:57:23.715Z,103850.25
2022-12-03T12:00:35.519Z,103858.28
2022-12-03T12:03:23.259Z,103856.59
2022-12-03T12:06:30.506Z,103854.84
2022-12-03T12:09:20.618Z,103749.84
2022-12-03T12:12:07.417Z,103841.81
2022-12-03T12:14:54.162Z,103847.09
2022-12-03T12:17:55.917Z,103839.13
2022-12-03T12:20:46.930Z,103838.31
2022-12-03T12:23:48.621Z,103848.06
2022-12-03T12:26:35.366Z,103843.75
2022-12-03T12:29:23.054Z,103842.94
2022-12-03T12:32:10.315Z,103842.94
2022-12-03T12:34:38.833Z,103844.72
2022-12-03T12:37:30.992Z,103823.56
2022-12-03T12:40:18.529Z,103830.81
2022-12-03T12:43:23.749Z,103843.09
2022-12-03T12:49:21.773Z,103836.22
2022-12-03T12:52:08.823Z,103832.78
2022-12-03T12:55:01.642Z,103827.53
2022-12-03T12:57:53.792Z,103822.31
2022-12-03T13:00:43.227Z,103769.56
2022-12-03T13:03:32.162Z,103828.44
2022-12-03T13:06:18.948Z,103816.84
2022-12-03T13:09:08.868Z,103804.44
2022-12-03T13:12:05.845Z,103821.41
2022-12-03T13:14:57.363Z,103820.56
2022-12-03T13:17:45.406Z,103815.22
2022-12-03T13:20:40.137Z,103801.91
2022-12-03T13:23:44.797Z,103813.44
2022-12-03T13:26:43.809Z,103800.22
2022-12-03T13:29:39.573Z,103813.44
2022-12-03T13:32:46.939Z,103810.00
2022-12-03T13:35:48.042Z,103815.25
2022-12-03T13:38:36.850Z,103794.69
2022-12-03T13:41:23.674Z,103824.91
2022-12-03T13:44:10.414Z,103823.13
2022-12-03T13:46:57.237Z,103812.66
2022-12-03T13:49:44.260Z,103824.94
2022-12-03T13:52:35.683Z,103824.13
2022-12-03T13:55:23.876Z,103818.88
2022-12-03T13:58:10.662Z,103810.09
2022-12-03T14:00:57.437Z,103708.59
2022-12-03T14:03:44.182Z,103808.38
2022-12-03T14:06:30.977Z,103782.75
2022-12-03T14:09:17.764Z,103794.34
2022-12-03T14:12:03.189Z,103796.06
2022-12-03T14:14:49.999Z,103791.63
2022-12-03T14:17:36.781Z,103690.22
2022-12-03T14:20:24.057Z,103778.50
2022-12-03T14:23:10.867Z,103706.34
2022-12-03T14:25:57.623Z,103783.78
2022-12-03T14:28:44.395Z,103770.63
2022-12-03T14:31:31.354Z,103777.59
2022-12-03T14:34:18.208Z,103781.06
2022-12-03T14:37:04.995Z,103772.19
2022-12-03T14:39:52.030Z,103768.53
2022-12-03T14:42:39.116Z,103777.19
2022-12-03T14:45:26.341Z,103772.59
2022-12-03T14:48:13.110Z,103772.56
2022-12-03T14:50:59.945Z,103783.06
2022-12-03T14:53:46.687Z,103775.00
2022-12-03T14:56:33.450Z,103778.44
2022-12-03T14:59:25.854Z,103771.19
2022-12-03T15:02:14.182Z,103638.47
2022-12-03T15:05:01.607Z,103796.53
2022-12-03T15:07:48.607Z,103788.59
2022-12-03T15:10:35.434Z,103769.78
2022-12-03T15:13:22.180Z,103766.22
2022-12-03T15:16:08.966Z,103782.25
2022-12-03T15:18:55.777Z,103788.25
2022-12-03T15:21:42.644Z,103750.00
2022-12-03T15:24:29.481Z,103776.75
2022-12-03T15:27:16.823Z,103771.41
2022-12-03T15:30:03.580Z,103776.63
2022-12-03T15:32:50.447Z,103787.06
2022-12-03T15:35:37.187Z,103776.47
2022-12-03T15:38:23.990Z,103786.88
2022-12-03T15:41:10.827Z,103783.28
2022-12-03T15:43:57.599Z,103785.03
2022-12-03T15:46:45.160Z,103789.34
2022-12-03T15:49:31.943Z,103755.53
2022-12-03T15:52:18.688Z,103781.41
2022-12-03T15:55:05.528Z,103776.06
2022-12-03T15:57:52.311Z,103785.81
2022-12-03T16:00:39.441Z,103779.66
2022-12-03T16:03:26.243Z,103773.25
2022-12-03T16:06:13.865Z,103744.84
2022-12-03T16:09:00.634Z,103761.41
2022-12-03T16:11:47.414Z,103789.19
2022-12-03T16:14:35.941Z,103791.75
2022-12-03T16:17:22.691Z,103788.22
2022-12-03T16:20:09.449Z,103774.31
2022-12-03T16:22:56.274Z,103773.41
2022-12-03T16:25:43.038Z,103770.78
2022-12-03T16:28:29.870Z,103766.38
2022-12-03T16:31:16.728Z,103756.41
2022-12-03T16:34:03.534Z,103765.47
2022-12-03T16:36:50.288Z,103771.63
2022-12-03T16:39:37.162Z,103769.81
2022-12-03T16:42:24.052Z,103757.47
2022-12-03T16:45:13.852Z,103765.53
2022-12-03T16:48:00.642Z,103760.13
2022-12-03T16:50:47.401Z,103761.19
2022-12-03T16:53:34.746Z,103769.09
2022-12-03T16:56:01.920Z,103754.84
2022-12-03T16:58:48.687Z,103767.34
2022-12-03T17:01:35.532Z,103770.06
2022-12-03T17:04:22.301Z,103766.59
2022-12-03T17:07:29.084Z,103747.88
2022-12-03T17:09:56.331Z,103764.88
2022-12-03T17:12:23.428Z,103765.69
2022-12-03T17:14:50.225Z,103762.19
2022-12-03T17:17:17.927Z,103762.25
2022-12-03T17:19:44.768Z,103693.69
2022-12-03T17:22:32.275Z,103762.25
2022-12-03T17:25:19.017Z,103745.31
2022-12-03T17:28:05.996Z,103748.31
2022-12-03T17:30:52.806Z,103741.13
2022-12-03T17:33:39.561Z,103748.19
2022-12-03T17:36:26.942Z,103754.47
2022-12-03T17:39:13.724Z,103669.91
2022-12-03T17:42:00.448Z,103733.09
2022-12-03T17:44:47.262Z,103752.75
2022-12-03T17:47:34.081Z,103753.66
2022-12-03T17:50:20.844Z,103750.13
2022-12-03T17:53:07.607Z,103745.56
2022-12-03T17:55:54.500Z,103752.75
2022-12-03T17:58:41.302Z,103734.16
2022-12-03T18:01:31.467Z,103730.50
2022-12-03T18:03:58.372Z,103748.47
2022-12-03T18:06:26.400Z,103755.47
2022-12-03T18:08:53.370Z,103685.28
2022-12-03T18:11:40.206Z,103752.75
2022-12-03T18:14:27.176Z,103754.72
2022-12-03T18:17:13.919Z,103729.72
2022-12-03T18:20:00.753Z,103760.00
2022-12-03T18:22:48.154Z,103754.44
2022-12-03T18:25:35.037Z,103759.97
2022-12-03T18:28:21.814Z,103763.41
2022-12-03T18:31:09.243Z,103647.69
2022-12-03T18:33:56.039Z,103709.91
2022-12-03T18:36:49.310Z,103766.94
2022-12-03T18:39:50.616Z,103759.06
2022-12-03T18:42:39.818Z,103747.38
2022-12-03T18:45:27.030Z,103754.72
2022-12-03T18:48:14.831Z,103758.31
2022-12-03T18:51:03.165Z,103764.50
2022-12-03T18:53:49.946Z,103728.81
2022-12-03T18:56:38.458Z,103758.22
2022-12-03T18:59:25.223Z,103768.03
2022-12-03T19:02:13.116Z,103767.06
2022-12-03T19:05:09.219Z,103768.78
2022-12-03T19:07:56.235Z,103763.53
2022-12-03T19:10:43.979Z,103762.69
2022-12-03T19:13:31.076Z,103762.69
2022-12-03T19:16:24.668Z,103749.38
2022-12-03T19:19:11.497Z,103759.22
2022-12-03T19:21:58.293Z,103756.44
2022-12-03T19:24:45.026Z,103766.22
2022-12-03T19:27:31.805Z,103761.88
2022-12-03T19:30:19.054Z,103763.66
2022-12-03T19:33:05.845Z,103750.34
2022-12-03T19:35:52.626Z,103757.59
2022-12-03T19:38:39.425Z,103755.81
2022-12-03T19:41:28.527Z,103746.09
2022-12-03T19:44:16.207Z,103753.19
2022-12-03T19:47:03.459Z,103732.78
2022-12-03T19:49:50.249Z,103755.00
2022-12-03T19:52:37.001Z,103723.13
2022-12-03T19:55:24.004Z,103750.63
2022-12-03T19:58:10.849Z,103735.53
2022-12-03T20:00:57.613Z,103757.66
2022-12-03T20:03:44.381Z,103752.47
2022-12-03T20:06:31.985Z,103754.19
2022-12-03T20:09:21.845Z,103747.19
2022-12-03T20:12:11.637Z,103752.47
2022-12-03T20:15:18.340Z,103745.47
2022-12-03T20:18:25.115Z,103753.34
2022-12-03T20:21:32.800Z,103758.59
2022-12-03T20:24:39.522Z,103742.75
2022-12-03T20:27:46.249Z,103747.13
2022-12-03T20:30:52.980Z,103744.41
2022-12-03T20:34:05.462Z,103747.00
2022-12-03T20:37:12.221Z,103750.53
2022-12-03T20:40:18.956Z,103752.22
2022-12-03T20:43:05.709Z,103750.44
2022-12-03T20:45:52.470Z,103743.38
2022-12-03T20:49:00.298Z,103754.91
2022-12-03T20:52:10.149Z,103743.31
2022-12-03T20:55:16.866Z,103736.16
2022-12-03T20:58:23.689Z,103742.38
2022-12-03T21:01:32.757Z,103760.16
2022-12-03T21:04:39.609Z,103755.78
2022-12-03T21:07:26.500Z,103749.72
2022-12-03T21:10:13.317Z,103732.63
2022-12-03T21:13:00.113Z,103757.59
2022-12-03T21:15:46.983Z,103715.94
2022-12-03T21:18:36.717Z,103743.59
2022-12-03T21:21:23.864Z,103712.47
2022-12-03T21:24:10.653Z,103736.69
2022-12-03T21:26:57.439Z,103734.94
2022-12-03T21:29:44.442Z,103715.41
2022-12-03T21:32:31.194Z,103583.66
2022-12-03T21:35:18.008Z,103734.88
2022-12-03T21:38:04.753Z,103742.81
2022-12-03T21:40:51.541Z,103744.56
2022-12-03T21:43:38.441Z,103744.56
2022-12-03T21:47:10.468Z,103752.38
2022-12-03T21:49:34.841Z,103734.69
2022-12-03T21:52:21.575Z,103745.31
2022-12-03T21:55:08.345Z,103750.56
2022-12-03T21:57:55.994Z,103750.56
2022-12-03T22:00:42.931Z,103749.75
2022-12-03T22:03:29.717Z,103745.38
2022-12-03T22:06:16.573Z,103741.03
2022-12-03T22:09:04.130Z,103740.13
2022-12-03T22:11:50.877Z,103741.03
2022-12-03T22:14:37.630Z,103736.69
2022-12-03T22:17:04.466Z,103737.50
2022-12-03T22:19:31.485Z,103732.22
2022-12-03T22:21:58.346Z,103738.34
2022-12-03T22:24:45.151Z,103736.63
2022-12-03T22:27:33.065Z,103734.84
2022-12-03T22:30:19.813Z,103733.97
2022-12-03T22:33:06.554Z,103650.16
2022-12-03T22:35:53.313Z,103739.22
2022-12-03T22:38:20.097Z,103736.50
2022-12-03T22:40:47.238Z,103734.78
2022-12-03T22:43:14.126Z,103738.31
2022-12-03T22:45:40.917Z,103734.75
2022-12-03T22:48:07.690Z,103731.25
2022-12-03T22:50:54.466Z,103724.00
2022-12-03T22:53:41.759Z,103726.78
2022-12-03T22:56:28.638Z,103658.00
2022-12-03T22:59:15.682Z,103725.00
2022-12-03T23:02:02.506Z,103737.16
2022-12-03T23:04:49.260Z,103729.34
2022-12-03T23:07:36.046Z,103726.78
2022-12-03T23:10:22.902Z,103725.91
2022-12-03T23:13:09.729Z,103717.91
2022-12-03T23:15:57.350Z,103721.44
2022-12-03T23:18:44.213Z,103729.34
2022-12-03T23:21:36.335Z,103676.03
2022-12-03T23:24:25.203Z,103696.59
2022-12-03T23:27:11.962Z,103716.03
2022-12-03T23:29:58.741Z,103720.63
2022-12-03T23:32:45.478Z,103718.00
2022-12-03T23:35:12.734Z,103701.09
2022-12-03T23:37:42.609Z,103633.59
2022-12-03T23:40:10.005Z,103684.38
2022-12-03T23:42:56.783Z,103711.84
2022-12-03T23:45:43.555Z,103694.97
2022-12-03T23:48:30.362Z,103634.28
2022-12-03T23:51:17.118Z,103717.03
2022-12-03T23:54:04.678Z,103667.22
2022-12-03T23:56:51.455Z,103705.47
2022-12-03T23:59:38.270Z,103694.91
